sensor_id;sensor_type;location;lat;lon;timestamp;P1;durP1;ratioP1;P2;durP2;ratioP2
69260;SDS011;56378;52.404;20.816;2022-12-18T00:00:39;29.00;;;11.43;;
69260;SDS011;56378;52.404;20.816;2022-12-18T00:03:06;34.00;;;12.82;;
69260;SDS011;56378;52.404;20.816;2022-12-18T00:05:32;28.35;;;11.80;;
69260;SDS011;56378;52.404;20.816;2022-12-18T00:07:58;31.80;;;12.43;;
69260;SDS011;56378;52.404;20.816;2022-12-18T00:10:24;33.15;;;13.38;;
69260;SDS011;56378;52.404;20.816;2022-12-18T00:12:49;34.57;;;13.13;;
69260;SDS011;56378;52.404;20.816;2022-12-18T00:15:15;32.13;;;12.57;;
69260;SDS011;56378;52.404;20.816;2022-12-18T00:17:41;27.80;;;10.50;;
69260;SDS011;56378;52.404;20.816;2022-12-18T00:20:07;28.40;;;11.45;;
69260;SDS011;56378;52.404;20.816;2022-12-18T00:22:33;27.20;;;10.85;;
69260;SDS011;56378;52.404;20.816;2022-12-18T00:24:59;29.73;;;11.33;;
69260;SDS011;56378;52.404;20.816;2022-12-18T00:27:24;38.03;;;12.20;;
69260;SDS011;56378;52.404;20.816;2022-12-18T00:29:50;28.87;;;10.70;;
69260;SDS011;56378;52.404;20.816;2022-12-18T00:32:16;28.70;;;10.60;;
69260;SDS011;56378;52.404;20.816;2022-12-18T00:34:42;27.63;;;10.20;;
69260;SDS011;56378;52.404;20.816;2022-12-18T00:37:08;27.83;;;11.10;;
69260;SDS011;56378;52.404;20.816;2022-12-18T00:39:34;26.23;;;9.90;;
69260;SDS011;56378;52.404;20.816;2022-12-18T00:42:00;33.07;;;10.83;;
69260;SDS011;56378;52.404;20.816;2022-12-18T00:44:44;26.17;;;9.00;;
69260;SDS011;56378;52.404;20.816;2022-12-18T00:47:09;27.27;;;9.75;;
69260;SDS011;56378;52.404;20.816;2022-12-18T00:49:35;26.27;;;10.07;;
69260;SDS011;56378;52.404;20.816;2022-12-18T00:52:01;27.10;;;9.87;;
69260;SDS011;56378;52.404;20.816;2022-12-18T00:54:27;29.50;;;10.10;;
69260;SDS011;56378;52.404;20.816;2022-12-18T00:56:52;28.00;;;10.03;;
69260;SDS011;56378;52.404;20.816;2022-12-18T00:59:20;29.38;;;11.18;;
69260;SDS011;56378;52.404;20.816;2022-12-18T01:01:46;25.50;;;9.88;;
69260;SDS011;56378;52.404;20.816;2022-12-18T01:04:12;27.65;;;10.60;;
69260;SDS011;56378;52.404;20.816;2022-12-18T01:06:38;27.93;;;9.63;;
69260;SDS011;56378;52.404;20.816;2022-12-18T01:09:04;30.52;;;10.13;;
69260;SDS011;56378;52.404;20.816;2022-12-18T01:11:30;31.77;;;11.48;;
69260;SDS011;56378;52.404;20.816;2022-12-18T01:13:59;30.00;;;10.93;;
69260;SDS011;56378;52.404;20.816;2022-12-18T01:16:25;29.45;;;10.95;;
69260;SDS011;56378;52.404;20.816;2022-12-18T01:18:51;30.25;;;10.63;;
69260;SDS011;56378;52.404;20.816;2022-12-18T01:21:19;29.23;;;10.35;;
69260;SDS011;56378;52.404;20.816;2022-12-18T01:23:45;27.93;;;10.70;;
69260;SDS011;56378;52.404;20.816;2022-12-18T01:26:13;26.38;;;10.38;;
69260;SDS011;56378;52.404;20.816;2022-12-18T01:28:40;28.17;;;10.02;;
69260;SDS011;56378;52.404;20.816;2022-12-18T01:31:25;26.75;;;9.63;;
69260;SDS011;56378;52.404;20.816;2022-12-18T01:33:53;26.25;;;9.50;;
69260;SDS011;56378;52.404;20.816;2022-12-18T01:36:20;26.40;;;10.07;;
69260;SDS011;56378;52.404;20.816;2022-12-18T01:38:48;30.15;;;10.05;;
69260;SDS011;56378;52.404;20.816;2022-12-18T01:41:16;32.33;;;9.82;;
69260;SDS011;56378;52.404;20.816;2022-12-18T01:43:44;29.52;;;10.13;;
69260;SDS011;56378;52.404;20.816;2022-12-18T01:46:10;32.25;;;9.65;;
69260;SDS011;56378;52.404;20.816;2022-12-18T01:48:36;29.97;;;9.57;;
69260;SDS011;56378;52.404;20.816;2022-12-18T01:51:04;35.97;;;11.45;;
69260;SDS011;56378;52.404;20.816;2022-12-18T01:53:31;34.05;;;9.52;;
69260;SDS011;56378;52.404;20.816;2022-12-18T01:55:57;31.42;;;8.95;;
69260;SDS011;56378;52.404;20.816;2022-12-18T01:58:27;31.70;;;9.80;;
69260;SDS011;56378;52.404;20.816;2022-12-18T02:01:07;24.58;;;8.73;;
69260;SDS011;56378;52.404;20.816;2022-12-18T02:03:34;24.92;;;8.35;;
69260;SDS011;56378;52.404;20.816;2022-12-18T02:14:38;21.23;;;7.68;;
69260;SDS011;56378;52.404;20.816;2022-12-18T02:28:30;23.58;;;8.55;;
69260;SDS011;56378;52.404;20.816;2022-12-18T02:31:00;23.98;;;7.95;;
69260;SDS011;56378;52.404;20.816;2022-12-18T02:33:29;22.88;;;7.80;;
69260;SDS011;56378;52.404;20.816;2022-12-18T02:35:57;24.15;;;8.05;;
69260;SDS011;56378;52.404;20.816;2022-12-18T02:38:24;24.20;;;8.13;;
69260;SDS011;56378;52.404;20.816;2022-12-18T02:40:50;25.80;;;8.75;;
69260;SDS011;56378;52.404;20.816;2022-12-18T02:43:18;22.25;;;7.72;;
69260;SDS011;56378;52.404;20.816;2022-12-18T02:48:23;25.67;;;7.63;;
69260;SDS011;56378;52.404;20.816;2022-12-18T02:51:08;24.15;;;7.82;;
69260;SDS011;56378;52.404;20.816;2022-12-18T02:53:58;23.17;;;7.45;;
69260;SDS011;56378;52.404;20.816;2022-12-18T02:56:49;21.77;;;7.47;;
69260;SDS011;56378;52.404;20.816;2022-12-18T02:59:53;24.08;;;8.73;;
69260;SDS011;56378;52.404;20.816;2022-12-18T03:02:32;23.80;;;8.53;;
69260;SDS011;56378;52.404;20.816;2022-12-18T03:05:20;27.25;;;8.20;;
69260;SDS011;56378;52.404;20.816;2022-12-18T03:10:28;21.77;;;8.02;;
69260;SDS011;56378;52.404;20.816;2022-12-18T03:13:04;22.15;;;7.45;;
69260;SDS011;56378;52.404;20.816;2022-12-18T03:15:55;21.70;;;7.50;;
69260;SDS011;56378;52.404;20.816;2022-12-18T03:18:23;20.33;;;7.53;;
69260;SDS011;56378;52.404;20.816;2022-12-18T03:20:55;20.75;;;7.38;;
69260;SDS011;56378;52.404;20.816;2022-12-18T03:23:24;20.92;;;6.57;;
69260;SDS011;56378;52.404;20.816;2022-12-18T03:25:54;21.27;;;7.15;;
69260;SDS011;56378;52.404;20.816;2022-12-18T03:28:24;19.23;;;6.30;;
69260;SDS011;56378;52.404;20.816;2022-12-18T03:30:53;18.13;;;7.00;;
69260;SDS011;56378;52.404;20.816;2022-12-18T03:33:27;22.15;;;6.93;;
69260;SDS011;56378;52.404;20.816;2022-12-18T03:35:54;17.63;;;6.50;;
69260;SDS011;56378;52.404;20.816;2022-12-18T03:38:20;20.00;;;6.38;;
69260;SDS011;56378;52.404;20.816;2022-12-18T03:46:15;19.58;;;7.60;;
69260;SDS011;56378;52.404;20.816;2022-12-18T03:48:44;21.50;;;6.88;;
69260;SDS011;56378;52.404;20.816;2022-12-18T03:51:40;17.53;;;6.60;;
69260;SDS011;56378;52.404;20.816;2022-12-18T03:54:04;19.60;;;6.68;;
69260;SDS011;56378;52.404;20.816;2022-12-18T03:56:35;16.35;;;6.03;;
69260;SDS011;56378;52.404;20.816;2022-12-18T03:59:05;20.90;;;6.45;;
69260;SDS011;56378;52.404;20.816;2022-12-18T04:01:37;20.35;;;6.53;;
69260;SDS011;56378;52.404;20.816;2022-12-18T04:04:06;18.17;;;6.80;;
69260;SDS011;56378;52.404;20.816;2022-12-18T04:06:33;21.05;;;7.30;;
69260;SDS011;56378;52.404;20.816;2022-12-18T04:08:59;18.60;;;7.53;;
69260;SDS011;56378;52.404;20.816;2022-12-18T04:11:25;20.70;;;7.65;;
69260;SDS011;56378;52.404;20.816;2022-12-18T04:13:55;20.42;;;6.88;;
69260;SDS011;56378;52.404;20.816;2022-12-18T04:16:22;22.30;;;7.30;;
69260;SDS011;56378;52.404;20.816;2022-12-18T04:18:48;23.45;;;8.02;;
69260;SDS011;56378;52.404;20.816;2022-12-18T04:21:13;21.70;;;7.57;;
69260;SDS011;56378;52.404;20.816;2022-12-18T04:23:39;21.63;;;7.53;;
69260;SDS011;56378;52.404;20.816;2022-12-18T04:26:05;21.98;;;7.38;;
69260;SDS011;56378;52.404;20.816;2022-12-18T04:28:30;22.03;;;7.30;;
69260;SDS011;56378;52.404;20.816;2022-12-18T04:30:56;20.08;;;6.88;;
69260;SDS011;56378;52.404;20.816;2022-12-18T04:33:22;24.17;;;7.73;;
69260;SDS011;56378;52.404;20.816;2022-12-18T04:35:48;23.05;;;7.22;;
69260;SDS011;56378;52.404;20.816;2022-12-18T04:38:13;21.10;;;7.73;;
69260;SDS011;56378;52.404;20.816;2022-12-18T04:40:39;24.55;;;7.60;;
69260;SDS011;56378;52.404;20.816;2022-12-18T04:43:05;23.53;;;7.70;;
69260;SDS011;56378;52.404;20.816;2022-12-18T04:45:31;22.77;;;7.93;;
69260;SDS011;56378;52.404;20.816;2022-12-18T04:47:58;24.37;;;7.87;;
69260;SDS011;56378;52.404;20.816;2022-12-18T04:50:24;24.23;;;8.73;;
69260;SDS011;56378;52.404;20.816;2022-12-18T04:52:50;23.15;;;7.60;;
69260;SDS011;56378;52.404;20.816;2022-12-18T04:55:15;22.50;;;8.97;;
69260;SDS011;56378;52.404;20.816;2022-12-18T04:57:41;24.85;;;8.40;;
69260;SDS011;56378;52.404;20.816;2022-12-18T05:00:07;26.77;;;8.03;;
69260;SDS011;56378;52.404;20.816;2022-12-18T05:02:33;27.77;;;8.38;;
69260;SDS011;56378;52.404;20.816;2022-12-18T05:04:59;32.00;;;9.45;;
69260;SDS011;56378;52.404;20.816;2022-12-18T05:07:24;29.23;;;9.00;;
69260;SDS011;56378;52.404;20.816;2022-12-18T05:09:50;25.73;;;8.85;;
69260;SDS011;56378;52.404;20.816;2022-12-18T05:12:16;28.27;;;8.63;;
69260;SDS011;56378;52.404;20.816;2022-12-18T05:14:42;29.58;;;10.27;;
69260;SDS011;56378;52.404;20.816;2022-12-18T05:17:07;33.00;;;9.50;;
69260;SDS011;56378;52.404;20.816;2022-12-18T05:19:33;27.95;;;8.55;;
69260;SDS011;56378;52.404;20.816;2022-12-18T05:21:59;29.43;;;9.33;;
69260;SDS011;56378;52.404;20.816;2022-12-18T05:24:26;34.90;;;11.25;;
69260;SDS011;56378;52.404;20.816;2022-12-18T05:26:52;35.08;;;9.93;;
69260;SDS011;56378;52.404;20.816;2022-12-18T05:29:18;33.87;;;10.80;;
69260;SDS011;56378;52.404;20.816;2022-12-18T05:31:43;37.58;;;11.00;;
69260;SDS011;56378;52.404;20.816;2022-12-18T05:34:09;31.03;;;10.53;;
69260;SDS011;56378;52.404;20.816;2022-12-18T05:36:35;36.55;;;11.35;;
69260;SDS011;56378;52.404;20.816;2022-12-18T05:39:01;34.28;;;11.18;;
69260;SDS011;56378;52.404;20.816;2022-12-18T05:41:27;34.87;;;10.17;;
69260;SDS011;56378;52.404;20.816;2022-12-18T05:43:53;39.05;;;11.88;;
69260;SDS011;56378;52.404;20.816;2022-12-18T05:46:19;37.28;;;11.10;;
69260;SDS011;56378;52.404;20.816;2022-12-18T05:48:45;39.00;;;11.43;;
69260;SDS011;56378;52.404;20.816;2022-12-18T05:51:15;43.15;;;12.80;;
69260;SDS011;56378;52.404;20.816;2022-12-18T05:53:43;42.72;;;12.32;;
69260;SDS011;56378;52.404;20.816;2022-12-18T05:56:10;41.05;;;12.13;;
69260;SDS011;56378;52.404;20.816;2022-12-18T05:58:38;43.70;;;13.63;;
69260;SDS011;56378;52.404;20.816;2022-12-18T06:01:08;42.90;;;13.13;;
69260;SDS011;56378;52.404;20.816;2022-12-18T06:03:40;43.28;;;12.00;;
69260;SDS011;56378;52.404;20.816;2022-12-18T06:08:45;41.63;;;11.70;;
69260;SDS011;56378;52.404;20.816;2022-12-18T06:11:11;43.13;;;13.38;;
69260;SDS011;56378;52.404;20.816;2022-12-18T06:13:38;51.92;;;14.00;;
69260;SDS011;56378;52.404;20.816;2022-12-18T06:16:04;52.13;;;14.38;;
69260;SDS011;56378;52.404;20.816;2022-12-18T06:18:31;48.38;;;15.02;;
69260;SDS011;56378;52.404;20.816;2022-12-18T06:20:57;45.78;;;13.00;;
69260;SDS011;56378;52.404;20.816;2022-12-18T06:23:24;45.47;;;13.38;;
69260;SDS011;56378;52.404;20.816;2022-12-18T06:25:51;45.78;;;14.15;;
69260;SDS011;56378;52.404;20.816;2022-12-18T06:28:17;47.40;;;13.03;;
69260;SDS011;56378;52.404;20.816;2022-12-18T06:30:43;51.30;;;14.85;;
69260;SDS011;56378;52.404;20.816;2022-12-18T06:33:09;41.58;;;12.30;;
69260;SDS011;56378;52.404;20.816;2022-12-18T06:35:35;45.30;;;13.83;;
69260;SDS011;56378;52.404;20.816;2022-12-18T06:38:01;47.78;;;13.88;;
69260;SDS011;56378;52.404;20.816;2022-12-18T06:40:27;50.88;;;14.35;;
69260;SDS011;56378;52.404;20.816;2022-12-18T06:42:54;54.17;;;14.30;;
69260;SDS011;56378;52.404;20.816;2022-12-18T06:45:19;52.33;;;13.95;;
69260;SDS011;56378;52.404;20.816;2022-12-18T06:47:45;45.33;;;13.27;;
69260;SDS011;56378;52.404;20.816;2022-12-18T06:50:11;48.90;;;13.83;;
69260;SDS011;56378;52.404;20.816;2022-12-18T06:52:37;53.97;;;14.02;;
69260;SDS011;56378;52.404;20.816;2022-12-18T06:55:05;47.53;;;13.43;;
69260;SDS011;56378;52.404;20.816;2022-12-18T06:57:34;55.10;;;14.57;;
69260;SDS011;56378;52.404;20.816;2022-12-18T07:00:00;48.72;;;14.75;;
69260;SDS011;56378;52.404;20.816;2022-12-18T07:02:25;52.57;;;15.13;;
69260;SDS011;56378;52.404;20.816;2022-12-18T07:04:51;53.75;;;14.88;;
69260;SDS011;56378;52.404;20.816;2022-12-18T07:07:17;60.13;;;14.57;;
69260;SDS011;56378;52.404;20.816;2022-12-18T07:09:43;53.67;;;15.07;;
69260;SDS011;56378;52.404;20.816;2022-12-18T07:12:08;54.07;;;15.77;;
69260;SDS011;56378;52.404;20.816;2022-12-18T07:14:34;49.53;;;13.93;;
69260;SDS011;56378;52.404;20.816;2022-12-18T07:17:00;50.73;;;14.17;;
69260;SDS011;56378;52.404;20.816;2022-12-18T07:19:26;48.53;;;13.07;;
69260;SDS011;56378;52.404;20.816;2022-12-18T07:21:52;48.92;;;13.30;;
69260;SDS011;56378;52.404;20.816;2022-12-18T07:24:18;47.30;;;13.67;;
69260;SDS011;56378;52.404;20.816;2022-12-18T07:26:46;49.90;;;14.20;;
69260;SDS011;56378;52.404;20.816;2022-12-18T07:29:12;52.83;;;14.30;;
69260;SDS011;56378;52.404;20.816;2022-12-18T07:31:38;47.87;;;14.23;;
69260;SDS011;56378;52.404;20.816;2022-12-18T07:34:04;47.63;;;12.75;;
69260;SDS011;56378;52.404;20.816;2022-12-18T07:36:30;42.53;;;13.57;;
69260;SDS011;56378;52.404;20.816;2022-12-18T07:38:55;50.53;;;15.65;;
69260;SDS011;56378;52.404;20.816;2022-12-18T07:41:21;57.27;;;15.33;;
69260;SDS011;56378;52.404;20.816;2022-12-18T07:43:47;60.47;;;14.93;;
69260;SDS011;56378;52.404;20.816;2022-12-18T07:46:13;53.20;;;15.07;;
69260;SDS011;56378;52.404;20.816;2022-12-18T07:48:43;52.58;;;15.13;;
69260;SDS011;56378;52.404;20.816;2022-12-18T07:51:12;49.17;;;14.73;;
69260;SDS011;56378;52.404;20.816;2022-12-18T07:53:38;52.67;;;15.10;;
69260;SDS011;56378;52.404;20.816;2022-12-18T07:56:09;54.63;;;15.43;;
69260;SDS011;56378;52.404;20.816;2022-12-18T07:58:36;55.38;;;15.07;;
69260;SDS011;56378;52.404;20.816;2022-12-18T08:01:07;46.38;;;14.13;;
69260;SDS011;56378;52.404;20.816;2022-12-18T08:03:34;57.05;;;15.30;;
69260;SDS011;56378;52.404;20.816;2022-12-18T08:06:01;49.95;;;15.70;;
69260;SDS011;56378;52.404;20.816;2022-12-18T08:08:28;52.53;;;14.57;;
69260;SDS011;56378;52.404;20.816;2022-12-18T08:10:54;49.83;;;14.77;;
69260;SDS011;56378;52.404;20.816;2022-12-18T08:13:21;59.17;;;16.42;;
69260;SDS011;56378;52.404;20.816;2022-12-18T08:15:55;50.35;;;16.50;;
69260;SDS011;56378;52.404;20.816;2022-12-18T08:18:22;47.80;;;14.85;;
69260;SDS011;56378;52.404;20.816;2022-12-18T08:20:48;49.37;;;15.37;;
69260;SDS011;56378;52.404;20.816;2022-12-18T08:23:14;49.72;;;14.80;;
69260;SDS011;56378;52.404;20.816;2022-12-18T08:25:39;48.55;;;14.70;;
69260;SDS011;56378;52.404;20.816;2022-12-18T08:28:05;49.87;;;14.50;;
69260;SDS011;56378;52.404;20.816;2022-12-18T08:30:31;52.20;;;14.60;;
69260;SDS011;56378;52.404;20.816;2022-12-18T08:32:56;55.72;;;15.60;;
69260;SDS011;56378;52.404;20.816;2022-12-18T08:35:23;53.42;;;15.15;;
69260;SDS011;56378;52.404;20.816;2022-12-18T08:37:48;52.43;;;16.33;;
69260;SDS011;56378;52.404;20.816;2022-12-18T08:40:15;59.10;;;16.23;;
69260;SDS011;56378;52.404;20.816;2022-12-18T08:42:41;59.38;;;16.70;;
69260;SDS011;56378;52.404;20.816;2022-12-18T08:45:25;56.67;;;16.40;;
69260;SDS011;56378;52.404;20.816;2022-12-18T08:47:51;53.28;;;15.15;;
69260;SDS011;56378;52.404;20.816;2022-12-18T08:50:17;51.45;;;15.40;;
69260;SDS011;56378;52.404;20.816;2022-12-18T08:52:43;46.97;;;14.17;;
69260;SDS011;56378;52.404;20.816;2022-12-18T08:55:09;49.70;;;15.30;;
69260;SDS011;56378;52.404;20.816;2022-12-18T08:57:35;51.63;;;15.45;;
69260;SDS011;56378;52.404;20.816;2022-12-18T09:00:00;56.90;;;15.83;;
69260;SDS011;56378;52.404;20.816;2022-12-18T09:02:26;53.30;;;16.83;;
69260;SDS011;56378;52.404;20.816;2022-12-18T09:04:52;52.88;;;16.00;;
69260;SDS011;56378;52.404;20.816;2022-12-18T09:07:18;51.10;;;15.23;;
69260;SDS011;56378;52.404;20.816;2022-12-18T09:09:44;54.88;;;15.80;;
69260;SDS011;56378;52.404;20.816;2022-12-18T09:12:09;54.73;;;15.40;;
69260;SDS011;56378;52.404;20.816;2022-12-18T09:14:36;49.72;;;15.32;;
69260;SDS011;56378;52.404;20.816;2022-12-18T09:17:02;48.67;;;14.30;;
69260;SDS011;56378;52.404;20.816;2022-12-18T09:19:28;63.45;;;17.70;;
69260;SDS011;56378;52.404;20.816;2022-12-18T09:21:53;60.00;;;18.93;;
69260;SDS011;56378;52.404;20.816;2022-12-18T09:24:22;58.67;;;16.60;;
69260;SDS011;56378;52.404;20.816;2022-12-18T09:26:48;55.13;;;16.90;;
69260;SDS011;56378;52.404;20.816;2022-12-18T09:29:17;50.00;;;16.33;;
69260;SDS011;56378;52.404;20.816;2022-12-18T09:31:43;46.13;;;15.10;;
69260;SDS011;56378;52.404;20.816;2022-12-18T09:34:09;49.17;;;15.10;;
69260;SDS011;56378;52.404;20.816;2022-12-18T09:36:35;47.17;;;14.68;;
69260;SDS011;56378;52.404;20.816;2022-12-18T09:39:00;56.07;;;18.13;;
69260;SDS011;56378;52.404;20.816;2022-12-18T09:44:15;48.03;;;14.95;;
69260;SDS011;56378;52.404;20.816;2022-12-18T09:46:45;44.13;;;14.60;;
69260;SDS011;56378;52.404;20.816;2022-12-18T09:49:26;47.30;;;16.00;;
69260;SDS011;56378;52.404;20.816;2022-12-18T09:54:38;48.35;;;15.00;;
69260;SDS011;56378;52.404;20.816;2022-12-18T09:57:26;45.63;;;14.80;;
69260;SDS011;56378;52.404;20.816;2022-12-18T09:59:56;49.83;;;16.30;;
69260;SDS011;56378;52.404;20.816;2022-12-18T10:02:29;47.25;;;15.48;;
69260;SDS011;56378;52.404;20.816;2022-12-18T10:07:37;56.05;;;17.52;;
69260;SDS011;56378;52.404;20.816;2022-12-18T10:10:38;49.03;;;16.83;;
69260;SDS011;56378;52.404;20.816;2022-12-18T10:16:04;39.70;;;14.48;;
69260;SDS011;56378;52.404;20.816;2022-12-18T10:18:37;41.58;;;14.00;;
69260;SDS011;56378;52.404;20.816;2022-12-18T10:21:21;37.85;;;14.13;;
69260;SDS011;56378;52.404;20.816;2022-12-18T10:26:49;38.77;;;14.60;;
69260;SDS011;56378;52.404;20.816;2022-12-18T10:29:15;43.53;;;15.15;;
69260;SDS011;56378;52.404;20.816;2022-12-18T10:31:41;43.13;;;14.65;;
69260;SDS011;56378;52.404;20.816;2022-12-18T10:34:11;40.67;;;14.20;;
69260;SDS011;56378;52.404;20.816;2022-12-18T10:36:40;40.15;;;14.75;;
69260;SDS011;56378;52.404;20.816;2022-12-18T10:39:14;47.35;;;15.45;;
69260;SDS011;56378;52.404;20.816;2022-12-18T10:41:44;42.30;;;15.82;;
69260;SDS011;56378;52.404;20.816;2022-12-18T10:44:20;44.13;;;15.43;;
69260;SDS011;56378;52.404;20.816;2022-12-18T10:46:49;41.08;;;14.38;;
69260;SDS011;56378;52.404;20.816;2022-12-18T10:49:27;49.10;;;15.70;;
69260;SDS011;56378;52.404;20.816;2022-12-18T10:52:05;43.35;;;15.63;;
69260;SDS011;56378;52.404;20.816;2022-12-18T10:54:39;45.35;;;14.68;;
69260;SDS011;56378;52.404;20.816;2022-12-18T11:00:21;43.47;;;15.15;;
69260;SDS011;56378;52.404;20.816;2022-12-18T11:02:50;45.08;;;14.60;;
69260;SDS011;56378;52.404;20.816;2022-12-18T11:05:26;47.30;;;15.52;;
69260;SDS011;56378;52.404;20.816;2022-12-18T11:07:52;46.33;;;15.00;;
69260;SDS011;56378;52.404;20.816;2022-12-18T11:10:22;43.83;;;14.60;;
69260;SDS011;56378;52.404;20.816;2022-12-18T11:13:11;44.47;;;15.15;;
69260;SDS011;56378;52.404;20.816;2022-12-18T11:15:43;46.05;;;13.68;;
69260;SDS011;56378;52.404;20.816;2022-12-18T11:21:11;40.53;;;14.23;;
69260;SDS011;56378;52.404;20.816;2022-12-18T11:23:44;43.45;;;15.60;;
69260;SDS011;56378;52.404;20.816;2022-12-18T11:26:11;43.42;;;14.27;;
69260;SDS011;56378;52.404;20.816;2022-12-18T11:28:51;49.45;;;14.70;;
69260;SDS011;56378;52.404;20.816;2022-12-18T11:31:32;44.58;;;14.98;;
69260;SDS011;56378;52.404;20.816;2022-12-18T11:36:47;42.78;;;14.23;;
69260;SDS011;56378;52.404;20.816;2022-12-18T11:39:16;51.60;;;16.95;;
69260;SDS011;56378;52.404;20.816;2022-12-18T11:41:56;45.05;;;14.55;;
69260;SDS011;56378;52.404;20.816;2022-12-18T11:50:20;43.20;;;14.57;;
69260;SDS011;56378;52.404;20.816;2022-12-18T11:52:50;45.20;;;14.20;;
69260;SDS011;56378;52.404;20.816;2022-12-18T12:03:39;41.53;;;13.80;;
69260;SDS011;56378;52.404;20.816;2022-12-18T12:14:55;42.77;;;13.20;;
69260;SDS011;56378;52.404;20.816;2022-12-18T12:28:18;49.10;;;15.13;;
69260;SDS011;56378;52.404;20.816;2022-12-18T12:33:29;44.22;;;15.55;;
69260;SDS011;56378;52.404;20.816;2022-12-18T12:39:06;40.72;;;12.80;;
69260;SDS011;56378;52.404;20.816;2022-12-18T12:41:37;44.53;;;13.10;;
69260;SDS011;56378;52.404;20.816;2022-12-18T12:46:55;42.70;;;13.65;;
69260;SDS011;56378;52.404;20.816;2022-12-18T12:49:26;44.30;;;13.55;;
69260;SDS011;56378;52.404;20.816;2022-12-18T12:52:10;40.60;;;12.98;;
69260;SDS011;56378;52.404;20.816;2022-12-18T12:54:41;44.37;;;13.23;;
69260;SDS011;56378;52.404;20.816;2022-12-18T13:05:20;46.00;;;15.27;;
69260;SDS011;56378;52.404;20.816;2022-12-18T13:07:56;49.92;;;15.57;;
69260;SDS011;56378;52.404;20.816;2022-12-18T13:10:41;46.20;;;14.13;;
69260;SDS011;56378;52.404;20.816;2022-12-18T13:13:08;48.58;;;15.07;;
69260;SDS011;56378;52.404;20.816;2022-12-18T13:18:20;45.13;;;14.10;;
69260;SDS011;56378;52.404;20.816;2022-12-18T13:20:49;49.55;;;15.32;;
69260;SDS011;56378;52.404;20.816;2022-12-18T13:31:13;49.15;;;16.60;;
69260;SDS011;56378;52.404;20.816;2022-12-18T13:34:11;49.22;;;16.10;;
69260;SDS011;56378;52.404;20.816;2022-12-18T13:36:43;55.30;;;17.07;;
69260;SDS011;56378;52.404;20.816;2022-12-18T13:41:44;53.30;;;17.52;;
69260;SDS011;56378;52.404;20.816;2022-12-18T13:47:00;52.92;;;15.90;;
69260;SDS011;56378;52.404;20.816;2022-12-18T13:49:39;53.20;;;15.77;;
69260;SDS011;56378;52.404;20.816;2022-12-18T13:52:18;57.72;;;17.02;;
69260;SDS011;56378;52.404;20.816;2022-12-18T13:54:51;51.17;;;15.88;;
69260;SDS011;56378;52.404;20.816;2022-12-18T13:57:31;48.35;;;16.50;;
69260;SDS011;56378;52.404;20.816;2022-12-18T14:00:14;52.25;;;16.85;;
69260;SDS011;56378;52.404;20.816;2022-12-18T14:02:53;52.90;;;16.03;;
69260;SDS011;56378;52.404;20.816;2022-12-18T14:07:51;48.17;;;15.52;;
69260;SDS011;56378;52.404;20.816;2022-12-18T14:10:18;59.08;;;17.77;;
69260;SDS011;56378;52.404;20.816;2022-12-18T14:12:47;56.38;;;17.80;;
69260;SDS011;56378;52.404;20.816;2022-12-18T14:17:52;56.08;;;16.98;;
69260;SDS011;56378;52.404;20.816;2022-12-18T14:20:20;55.55;;;17.38;;
69260;SDS011;56378;52.404;20.816;2022-12-18T14:22:47;51.97;;;16.67;;
69260;SDS011;56378;52.404;20.816;2022-12-18T14:25:21;60.90;;;18.13;;
69260;SDS011;56378;52.404;20.816;2022-12-18T14:28:31;56.43;;;16.67;;
69260;SDS011;56378;52.404;20.816;2022-12-18T14:30:43;47.63;;;16.10;;
69260;SDS011;56378;52.404;20.816;2022-12-18T14:33:11;51.45;;;15.98;;
69260;SDS011;56378;52.404;20.816;2022-12-18T14:35:51;55.17;;;16.00;;
69260;SDS011;56378;52.404;20.816;2022-12-18T14:40:43;52.33;;;15.50;;
69260;SDS011;56378;52.404;20.816;2022-12-18T14:43:10;50.40;;;15.32;;
69260;SDS011;56378;52.404;20.816;2022-12-18T14:45:39;59.38;;;17.05;;
69260;SDS011;56378;52.404;20.816;2022-12-18T14:48:17;55.63;;;15.23;;
69260;SDS011;56378;52.404;20.816;2022-12-18T14:50:53;49.33;;;14.98;;
69260;SDS011;56378;52.404;20.816;2022-12-18T14:53:41;54.15;;;16.77;;
69260;SDS011;56378;52.404;20.816;2022-12-18T14:56:28;53.40;;;16.50;;
69260;SDS011;56378;52.404;20.816;2022-12-18T14:58:58;65.38;;;19.38;;
69260;SDS011;56378;52.404;20.816;2022-12-18T15:01:29;61.42;;;18.70;;
69260;SDS011;56378;52.404;20.816;2022-12-18T15:03:57;58.00;;;16.73;;
69260;SDS011;56378;52.404;20.816;2022-12-18T15:08:53;59.60;;;17.17;;
69260;SDS011;56378;52.404;20.816;2022-12-18T15:11:27;61.10;;;17.95;;
69260;SDS011;56378;52.404;20.816;2022-12-18T15:13:54;64.93;;;17.60;;
69260;SDS011;56378;52.404;20.816;2022-12-18T15:16:22;63.97;;;17.85;;
69260;SDS011;56378;52.404;20.816;2022-12-18T15:18:48;58.63;;;15.63;;
69260;SDS011;56378;52.404;20.816;2022-12-18T15:21:16;61.40;;;17.58;;
69260;SDS011;56378;52.404;20.816;2022-12-18T15:26:10;51.60;;;15.97;;
69260;SDS011;56378;52.404;20.816;2022-12-18T15:28:51;59.03;;;17.17;;
69260;SDS011;56378;52.404;20.816;2022-12-18T15:36:24;55.92;;;16.00;;
69260;SDS011;56378;52.404;20.816;2022-12-18T15:38:55;57.53;;;15.17;;
69260;SDS011;56378;52.404;20.816;2022-12-18T15:41:22;57.15;;;16.10;;
69260;SDS011;56378;52.404;20.816;2022-12-18T15:43:49;61.00;;;17.02;;
69260;SDS011;56378;52.404;20.816;2022-12-18T15:48:46;56.92;;;16.27;;
69260;SDS011;56378;52.404;20.816;2022-12-18T15:51:15;55.23;;;15.83;;
69260;SDS011;56378;52.404;20.816;2022-12-18T15:54:02;53.70;;;16.17;;
69260;SDS011;56378;52.404;20.816;2022-12-18T15:56:30;59.78;;;16.80;;
69260;SDS011;56378;52.404;20.816;2022-12-18T15:59:15;60.75;;;16.95;;
69260;SDS011;56378;52.404;20.816;2022-12-18T16:01:43;62.65;;;16.55;;
69260;SDS011;56378;52.404;20.816;2022-12-18T16:04:12;58.37;;;15.60;;
69260;SDS011;56378;52.404;20.816;2022-12-18T16:06:38;59.90;;;17.33;;
69260;SDS011;56378;52.404;20.816;2022-12-18T16:09:05;54.83;;;15.73;;
69260;SDS011;56378;52.404;20.816;2022-12-18T16:11:31;56.30;;;15.60;;
69260;SDS011;56378;52.404;20.816;2022-12-18T16:14:16;69.20;;;16.97;;
69260;SDS011;56378;52.404;20.816;2022-12-18T16:16:53;53.75;;;15.93;;
69260;SDS011;56378;52.404;20.816;2022-12-18T16:19:21;61.47;;;16.40;;
69260;SDS011;56378;52.404;20.816;2022-12-18T16:21:47;59.25;;;15.65;;
69260;SDS011;56378;52.404;20.816;2022-12-18T16:24:21;52.75;;;14.80;;
69260;SDS011;56378;52.404;20.816;2022-12-18T16:26:49;46.00;;;15.10;;
69260;SDS011;56378;52.404;20.816;2022-12-18T16:29:16;49.15;;;14.23;;
69260;SDS011;56378;52.404;20.816;2022-12-18T16:31:43;58.97;;;15.98;;
69260;SDS011;56378;52.404;20.816;2022-12-18T16:34:09;55.28;;;14.75;;
69260;SDS011;56378;52.404;20.816;2022-12-18T16:36:48;54.72;;;16.05;;
69260;SDS011;56378;52.404;20.816;2022-12-18T16:39:14;57.23;;;14.90;;
69260;SDS011;56378;52.404;20.816;2022-12-18T16:41:41;52.03;;;15.93;;
69260;SDS011;56378;52.404;20.816;2022-12-18T16:44:07;60.10;;;15.65;;
69260;SDS011;56378;52.404;20.816;2022-12-18T16:46:33;53.60;;;15.63;;